createdAt,value
2022-11-29T00:03:57.932Z,10.52
2022-11-29T00:10:01.338Z,11.20
2022-11-29T00:16:07.306Z,10.55
2022-11-29T00:22:10.763Z,10.48
2022-11-29T00:28:14.128Z,11.23
2022-11-29T00:34:19.186Z,11.68
2022-11-29T00:40:22.814Z,10.90
2022-11-29T00:46:26.325Z,10.50
2022-11-29T00:52:31.226Z,10.07
2022-11-29T00:58:34.702Z,10.98
2022-11-29T01:04:38.215Z,10.65
2022-11-29T01:10:43.660Z,9.65
2022-11-29T01:16:47.106Z,9.45
2022-11-29T01:22:51.004Z,8.98
2022-11-29T01:28:56.776Z,10.05
2022-11-29T01:35:00.140Z,9.38
2022-11-29T01:41:04.994Z,10.55
2022-11-29T01:47:12.491Z,10.32
2022-11-29T01:53:16.622Z,9.32
2022-11-29T01:59:21.004Z,10.23
2022-11-29T02:05:27.079Z,10.60
2022-11-29T02:11:54.310Z,14.45
2022-11-29T02:18:02.604Z,10.10
2022-11-29T02:24:24.436Z,10.00
2022-11-29T02:30:51.715Z,11.65
2022-11-29T02:37:11.525Z,9.93
2022-11-29T02:43:21.276Z,10.38
2022-11-29T02:49:30.521Z,9.90
2022-11-29T02:55:40.175Z,9.65
2022-11-29T03:01:48.043Z,9.80
2022-11-29T03:07:55.839Z,10.25
2022-11-29T03:14:06.865Z,11.13
2022-11-29T03:20:21.514Z,12.65
2022-11-29T03:26:28.492Z,12.07
2022-11-29T03:32:36.855Z,10.88
2022-11-29T03:38:41.671Z,11.00
2022-11-29T03:44:48.577Z,10.77
2022-11-29T03:50:55.163Z,10.27
2022-11-29T03:56:58.747Z,9.98
2022-11-29T04:03:22.894Z,10.48
2022-11-29T04:09:36.881Z,11.88
2022-11-29T04:15:59.022Z,10.80
2022-11-29T04:22:35.530Z,30.23
2022-11-29T04:29:01.972Z,17.48
2022-11-29T04:35:16.882Z,15.13
2022-11-29T04:41:26.623Z,13.90
2022-11-29T04:47:40.773Z,13.93
2022-11-29T04:53:51.250Z,8.60
2022-11-29T04:59:58.153Z,9.85
2022-11-29T05:06:06.824Z,9.13
2022-11-29T05:12:16.056Z,10.27
2022-11-29T05:18:25.074Z,9.55
2022-11-29T05:24:39.016Z,10.50
2022-11-29T05:31:01.019Z,10.82
2022-11-29T05:37:10.986Z,11.20
2022-11-29T05:43:23.114Z,11.15
2022-11-29T05:49:31.444Z,11.55
2022-11-29T05:55:42.048Z,10.85
2022-11-29T06:01:49.315Z,11.57
2022-11-29T06:07:57.079Z,13.32
2022-11-29T06:14:06.030Z,12.65
2022-11-29T06:20:19.650Z,12.20
2022-11-29T06:26:46.704Z,13.30
2022-11-29T06:32:53.307Z,13.27
2022-11-29T06:38:58.364Z,13.48
2022-11-29T06:45:02.080Z,12.55
2022-11-29T06:51:09.249Z,13.07
2022-11-29T06:57:17.109Z,13.25
2022-11-29T07:03:27.339Z,12.75
2022-11-29T07:09:34.098Z,13.52
2022-11-29T07:15:40.141Z,12.40
2022-11-29T07:21:50.178Z,13.55
2022-11-29T07:27:56.595Z,12.80
2022-11-29T07:34:06.980Z,12.85
2022-11-29T07:40:15.674Z,12.05
2022-11-29T07:46:19.084Z,12.60
2022-11-29T07:52:23.992Z,13.70
2022-11-29T07:58:27.571Z,13.43
2022-11-29T08:04:31.053Z,13.77
2022-11-29T08:10:35.826Z,15.35
2022-11-29T08:16:39.229Z,16.17
2022-11-29T08:22:42.777Z,16.23
2022-11-29T08:28:47.515Z,17.05
2022-11-29T08:34:51.310Z,15.48
2022-11-29T08:40:54.668Z,18.52
2022-11-29T08:47:17.102Z,13.43
2022-11-29T08:53:38.772Z,13.98
2022-11-29T08:59:44.890Z,14.75
2022-11-29T09:05:49.681Z,14.60
2022-11-29T09:11:53.336Z,15.07
2022-11-29T09:17:56.729Z,21.40
2022-11-29T09:24:02.602Z,19.10
2022-11-29T09:30:06.522Z,14.75
2022-11-29T09:36:10.654Z,14.15
2022-11-29T09:42:21.185Z,14.02
2022-11-29T09:48:33.752Z,16.05
2022-11-29T09:54:44.539Z,13.23
2022-11-29T10:00:51.112Z,14.93
2022-11-29T10:06:58.602Z,22.45
2022-11-29T10:13:04.148Z,24.63
2022-11-29T10:19:11.677Z,22.80
2022-11-29T10:25:19.919Z,23.25
2022-11-29T10:31:25.367Z,24.25
2022-11-29T10:37:32.900Z,21.75
2022-11-29T10:43:37.380Z,22.98
2022-11-29T10:49:41.311Z,20.00
2022-11-29T10:55:48.729Z,20.20
2022-11-29T11:01:53.788Z,20.25
2022-11-29T11:07:59.044Z,17.30
2022-11-29T11:14:05.419Z,19.15
2022-11-29T11:20:21.325Z,15.23
2022-11-29T11:26:25.613Z,18.02
2022-11-29T11:32:30.354Z,17.88
2022-11-29T11:38:34.208Z,21.08
2022-11-29T11:44:58.044Z,21.13
2022-11-29T11:51:03.647Z,21.63
2022-11-29T11:57:07.410Z,21.55
2022-11-29T12:03:28.659Z,20.17
2022-11-29T12:09:37.820Z,16.27
2022-11-29T12:15:42.646Z,16.05
2022-11-29T12:21:49.229Z,17.20
2022-11-29T12:27:53.980Z,16.00
2022-11-29T12:34:05.004Z,16.17
2022-11-29T12:40:15.396Z,17.55
2022-11-29T12:46:24.783Z,19.30
2022-11-29T12:52:32.933Z,15.57
2022-11-29T12:58:45.876Z,17.50
2022-11-29T13:04:59.624Z,19.67
2022-11-29T13:11:08.457Z,17.00
2022-11-29T13:17:20.113Z,19.30
2022-11-29T13:23:46.122Z,18.92
2022-11-29T13:29:50.241Z,22.02
2022-11-29T13:35:58.496Z,20.85
2022-11-29T13:42:06.844Z,24.08
2022-11-29T13:48:27.968Z,26.00
2022-11-29T13:54:32.884Z,34.90
2022-11-29T14:00:39.769Z,21.38
2022-11-29T14:06:43.240Z,27.85
2022-11-29T14:12:51.311Z,26.73
2022-11-29T14:19:22.108Z,21.83
2022-11-29T14:25:50.523Z,20.40
2022-11-29T14:31:55.588Z,19.65
2022-11-29T14:38:05.709Z,15.70
2022-11-29T14:44:17.210Z,14.93
2022-11-29T14:50:30.388Z,14.73
2022-11-29T14:56:39.038Z,14.73
2022-11-29T15:02:45.794Z,16.25
2022-11-29T15:08:52.950Z,15.18
2022-11-29T15:15:03.041Z,15.05
2022-11-29T15:21:16.665Z,15.63
2022-11-29T15:27:20.336Z,18.17
2022-11-29T15:33:25.930Z,13.88
2022-11-29T15:39:32.524Z,13.40
2022-11-29T15:45:36.741Z,16.45
2022-11-29T15:51:40.751Z,14.60
2022-11-29T15:57:46.338Z,16.10
2022-11-29T16:03:52.945Z,20.05
2022-11-29T16:09:58.659Z,16.15
2022-11-29T16:16:11.356Z,16.13
2022-11-29T16:22:19.694Z,18.83
2022-11-29T16:28:23.220Z,16.30
2022-11-29T16:34:30.596Z,17.52
2022-11-29T16:40:34.817Z,20.45
2022-11-29T16:46:39.243Z,16.58
2022-11-29T16:52:44.227Z,20.38
2022-11-29T16:59:20.744Z,17.00
2022-11-29T17:05:12.875Z,14.18
2022-11-29T17:11:17.734Z,15.40
2022-11-29T17:17:21.762Z,16.17
2022-11-29T17:23:25.261Z,16.58
2022-11-29T17:29:30.052Z,18.95
2022-11-29T17:35:36.615Z,20.33
2022-11-29T17:41:40.259Z,17.90
2022-11-29T17:47:45.251Z,20.98
2022-11-29T17:53:49.357Z,19.27
2022-11-29T17:59:52.741Z,18.63
2022-11-29T18:05:59.458Z,16.50
2022-11-29T18:12:02.855Z,18.00
2022-11-29T18:18:07.465Z,16.52
2022-11-29T18:24:12.310Z,15.38
2022-11-29T18:30:16.411Z,13.75
2022-11-29T18:36:21.140Z,14.15
2022-11-29T18:42:25.937Z,14.27
2022-11-29T18:48:31.873Z,15.10
2022-11-29T18:54:35.288Z,15.93
2022-11-29T19:00:41.259Z,15.90
2022-11-29T19:06:45.085Z,17.58
2022-11-29T19:12:48.538Z,21.67
2022-11-29T19:18:54.180Z,20.08
2022-11-29T19:24:57.738Z,19.83
2022-11-29T19:31:01.240Z,17.15
2022-11-29T19:37:06.411Z,16.48
2022-11-29T19:43:09.767Z,18.38
2022-11-29T19:49:13.767Z,16.70
2022-11-29T19:55:18.728Z,15.50
2022-11-29T20:01:24.460Z,17.42
2022-11-29T20:07:28.171Z,15.45
2022-11-29T20:13:32.988Z,17.20
2022-11-29T20:19:36.430Z,14.60
2022-11-29T20:25:39.924Z,12.70
2022-11-29T20:31:50.277Z,14.05
2022-11-29T20:38:06.008Z,14.07
2022-11-29T20:44:12.490Z,10.80
2022-11-29T20:50:21.763Z,12.95
2022-11-29T20:56:28.132Z,10.80
2022-11-29T21:02:31.547Z,11.35
2022-11-29T21:08:35.279Z,11.02
2022-11-29T21:14:40.688Z,12.43
2022-11-29T21:20:44.744Z,10.80
2022-11-29T21:26:51.759Z,10.73
2022-11-29T21:32:56.914Z,10.45
2022-11-29T21:39:04.883Z,10.40
2022-11-29T21:45:14.881Z,8.65
2022-11-29T21:51:20.655Z,10.10
2022-11-29T21:57:24.321Z,17.42
2022-11-29T22:03:27.729Z,10.43
2022-11-29T22:09:32.721Z,9.23
2022-11-29T22:15:36.132Z,11.25
2022-11-29T22:21:40.399Z,9.25
2022-11-29T22:27:45.119Z,9.35
2022-11-29T22:33:48.918Z,10.75
2022-11-29T22:39:52.294Z,10.38
2022-11-29T22:45:57.055Z,12.25
2022-11-29T22:52:00.605Z,15.77
2022-11-29T22:58:06.042Z,14.40
2022-11-29T23:04:11.659Z,12.30
2022-11-29T23:10:15.652Z,10.63
2022-11-29T23:16:19.908Z,13.25
2022-11-29T23:22:24.914Z,10.45
2022-11-29T23:28:28.389Z,14.10
2022-11-29T23:34:31.778Z,13.65
2022-11-29T23:40:37.403Z,11.38
2022-11-29T23:46:40.797Z,10.07
2022-11-29T23:52:44.415Z,10.95
2022-11-29T23:58:49.504Z,11.75
